Time;durP1;ratioP1;P1;durP2;ratioP2;P2;SDS_P1;SDS_P2;PMS_P1;PMS_P2;Temp;Humidity;BMP_temperature;BMP_pressure;BME280_temperature;BME280_humidity;BME280_pressure;Samples;Min_cycle;Max_cycle;Signal;HPM_P1;HPM_P2
2022/05/22 00:01:24;;;;;;;;;6.75;6.00;;;;;20.18;50.61;101402.59;5098857;27;45326;-50
2022/05/22 00:03:50;;;;;;;;;8.00;7.25;;;;;20.18;50.97;101410.69;5099545;27;45582;-51
2022/05/22 00:06:15;;;;;;;;;8.25;6.25;;;;;20.17;50.62;101411.69;5099498;27;45201;-51
2022/05/22 00:08:41;;;;;;;;;8.50;7.00;;;;;20.12;50.93;101403.34;5099523;27;45274;-50
2022/05/22 00:11:06;;;;;;;;;10.25;8.25;;;;;20.09;50.76;101389.38;5099398;27;45428;-51
2022/05/22 00:13:32;;;;;;;;;6.00;6.00;;;;;20.06;51.05;101403.28;5099572;27;45221;-50
2022/05/22 00:18:41;;;;;;;;;8.67;8.00;;;;;19.96;51.28;101400.88;5099382;27;45654;-53
2022/05/22 00:21:07;;;;;;;;;7.50;5.50;;;;;19.89;50.82;101398.13;5099175;27;45287;-51
2022/05/22 00:23:33;;;;;;;;;6.00;4.25;;;;;19.86;51.53;101403.09;5099146;27;45377;-51
2022/05/22 00:25:59;;;;;;;;;5.75;5.25;;;;;19.78;51.92;101389.69;5099549;27;45548;-54
2022/05/22 00:28:25;;;;;;;;;7.25;6.25;;;;;19.79;51.91;101388.66;5099245;27;45267;-52
2022/05/22 00:30:50;;;;;;;;;7.00;5.75;;;;;19.75;51.80;101385.50;5099469;27;45464;-50
2022/05/22 00:33:16;;;;;;;;;5.00;5.00;;;;;19.72;51.41;101383.22;5099725;27;45326;-52
2022/05/22 00:35:41;;;;;;;;;5.25;4.00;;;;;19.67;51.90;101382.94;5100093;27;45310;-50
2022/05/22 00:38:06;;;;;;;;;6.50;5.00;;;;;19.70;51.75;101393.34;5098873;27;47154;-54
2022/05/22 00:40:33;;;;;;;;;3.25;3.25;;;;;19.69;52.01;101387.13;5099020;27;45200;-52
2022/05/22 00:42:58;;;;;;;;;6.25;3.75;;;;;19.71;51.64;101381.53;5099346;27;45393;-45
2022/05/22 00:45:24;;;;;;;;;6.75;4.00;;;;;19.72;52.13;101382.34;5099238;27;45372;-52
2022/05/22 00:47:51;;;;;;;;;4.75;4.75;;;;;19.71;52.20;101380.69;5098908;27;45301;-53
2022/05/22 00:50:17;;;;;;;;;4.00;4.00;;;;;19.74;52.13;101377.63;5098348;27;45537;-53
2022/05/22 00:52:47;;;;;;;;;6.50;3.50;;;;;19.74;52.02;101374.91;5098749;27;45451;-43
2022/05/22 00:55:17;;;;;;;;;8.50;5.00;;;;;19.72;51.12;101379.66;5114906;27;45525;-47
2022/05/22 00:57:48;;;;;;;;;7.00;5.25;;;;;19.69;51.52;101365.53;5098685;27;45354;-52
2022/05/22 01:00:20;;;;;;;;;7.33;5.00;;;;;19.65;51.33;101353.44;5098557;27;45329;-50
2022/05/22 01:05:33;;;;;;;;;6.33;5.00;;;;;19.56;51.96;101345.63;5098496;27;45292;-50
2022/05/22 01:07:59;;;;;;;;;4.33;4.00;;;;;19.57;52.34;101341.91;5098055;27;46044;-47
2022/05/22 01:10:34;;;;;;;;;5.25;4.00;;;;;19.57;51.58;101341.91;5098423;27;45273;-51
2022/05/22 01:13:01;;;;;;;;;4.75;4.75;;;;;19.50;52.43;101349.06;5098707;27;45384;-51
2022/05/22 01:15:26;;;;;;;;;6.33;5.00;;;;;19.50;52.47;101339.13;5098899;27;45533;-48
2022/05/22 01:17:53;;;;;;;;;4.67;4.67;;;;;19.47;52.91;101336.81;5098558;27;45906;-45
2022/05/22 01:20:19;;;;;;;;;7.25;5.00;;;;;19.42;52.47;101336.53;5098563;27;45403;-53
2022/05/22 01:22:45;;;;;;;;;5.50;5.50;;;;;19.38;52.69;101325.31;5098474;27;45257;-49
2022/05/22 01:25:11;;;;;;;;;7.50;5.25;;;;;19.38;52.01;101328.00;5098820;27;45426;-53
2022/05/22 01:27:38;;;;;;;;;6.00;4.00;;;;;19.34;52.64;101332.13;5098291;27;46176;-44
2022/05/22 01:30:09;;;;;;;;;4.00;4.00;;;;;19.31;52.33;101326.25;5098319;27;45290;-47
2022/05/22 01:32:37;;;;;;;;;5.00;5.00;;;;;19.29;52.69;101322.91;5098357;27;45467;-45
2022/05/22 01:35:04;;;;;;;;;3.75;3.50;;;;;19.25;52.73;101325.13;5097692;27;45493;-45
2022/05/22 01:37:29;;;;;;;;;3.75;3.75;;;;;19.23;52.93;101326.38;5097865;27;47284;-44
2022/05/22 01:39:55;;;;;;;;;6.00;4.00;;;;;19.22;53.24;101324.69;5098239;27;45288;-55
2022/05/22 01:42:20;;;;;;;;;7.67;6.00;;;;;19.17;52.73;101315.31;5098191;27;45240;-53
2022/05/22 01:44:45;;;;;;;;;4.00;4.00;;;;;19.20;53.03;101316.78;5098436;27;45208;-50
2022/05/22 01:47:11;;;;;;;;;4.25;4.00;;;;;19.15;53.42;101317.34;5098053;27;46050;-51
2022/05/22 01:49:36;;;;;;;;;8.67;5.00;;;;;19.08;53.30;101316.41;5098178;27;45390;-45
2022/05/22 01:52:02;;;;;;;;;5.33;5.33;;;;;19.10;53.46;101319.78;5098026;27;45343;-46
2022/05/22 01:54:27;;;;;;;;;4.00;4.00;;;;;19.09;52.94;101326.22;5098074;27;45446;-53
2022/05/22 01:56:53;;;;;;;;;5.00;3.00;;;;;19.03;53.37;101312.63;5098019;27;46066;-48
2022/05/22 01:59:18;;;;;;;;;6.75;4.00;;;;;18.98;52.85;101315.91;5097905;27;45435;-51
2022/05/22 02:01:43;;;;;;;;;5.00;4.33;;;;;18.99;53.68;101322.94;5098167;27;45406;-45
2022/05/22 02:04:09;;;;;;;;;6.33;5.00;;;;;19.00;53.71;101316.53;5098005;27;45268;-50
2022/05/22 02:06:34;;;;;;;;;4.00;4.00;;;;;19.00;53.54;101319.22;5097597;27;46013;-45
2022/05/22 02:09:00;;;;;;;;;4.00;4.00;;;;;18.99;53.07;101317.56;5097690;27;45353;-49
2022/05/22 02:11:25;;;;;;;;;2.67;2.67;;;;;18.96;53.35;101307.13;5097992;27;45482;-46
2022/05/22 02:13:51;;;;;;;;;4.67;3.33;;;;;18.98;53.12;101307.81;5098170;27;45490;-53
2022/05/22 02:16:16;;;;;;;;;5.67;3.00;;;;;18.97;53.20;101303.44;5097752;27;46089;-47
2022/05/22 02:18:42;;;;;;;;;5.00;4.67;;;;;18.98;53.50;101313.19;5097468;27;45370;-49
2022/05/22 02:21:08;;;;;;;;;7.00;5.00;;;;;18.99;53.56;101322.13;5113736;27;45443;-45
2022/05/22 02:23:35;;;;;;;;;3.33;3.33;;;;;18.97;52.80;101311.53;5097756;27;45214;-53
2022/05/22 02:26:02;;;;;;;;;4.00;4.00;;;;;18.65;53.32;101264.22;5097466;27;46272;-50
2022/05/22 02:28:28;;;;;;;;;5.00;4.33;;;;;18.96;53.41;101315.22;5097564;27;45441;-46
2022/05/22 02:30:57;;;;;;;;;5.00;3.67;;;;;18.93;53.15;101318.31;5097073;27;45446;-50
2022/05/22 02:33:23;;;;;;;;;5.67;4.00;;;;;18.89;53.33;101314.31;5097703;27;45366;-52
2022/05/22 02:35:50;;;;;;;;;4.33;4.33;;;;;18.85;53.06;101307.63;5096805;27;46496;-54
2022/05/22 02:38:17;;;;;;;;;4.00;2.00;;;;;18.86;53.75;101306.59;5097025;27;45381;-47
2022/05/22 02:40:42;;;;;;;;;6.33;3.00;;;;;18.85;53.59;101310.34;5097407;27;45334;-46
2022/05/22 02:43:08;;;;;;;;;5.00;3.00;;;;;18.88;53.73;101313.50;5097330;27;45398;-45
2022/05/22 02:45:36;;;;;;;;;3.50;3.25;;;;;18.89;53.10;101320.56;5097322;27;45986;-43
2022/05/22 02:48:02;;;;;;;;;5.00;3.33;;;;;18.88;53.37;101329.66;5100076;27;45251;-51
2022/05/22 02:50:29;;;;;;;;;6.00;6.00;;;;;18.87;53.40;101333.38;5100877;27;45450;-46
2022/05/22 02:52:55;;;;;;;;;3.00;3.00;;;;;18.86;53.34;101333.56;5100966;27;45420;-51
2022/05/22 02:55:21;;;;;;;;;4.67;4.67;;;;;18.85;52.97;101338.13;5100654;27;46440;-50
2022/05/22 02:57:47;;;;;;;;;2.50;2.50;;;;;18.82;53.42;101343.03;5100824;27;46101;-54
2022/05/22 03:00:22;;;;;;;;;4.00;4.00;;;;;18.79;53.31;101344.25;5100879;27;45580;-51
2022/05/22 03:02:47;;;;;;;;;5.00;5.00;;;;;18.80;53.25;101340.53;5101079;27;45410;-54
2022/05/22 03:05:13;;;;;;;;;3.33;3.33;;;;;18.81;53.44;101342.22;5098952;27;46001;-52
2022/05/22 03:07:39;;;;;;;;;1.00;1.00;;;;;18.73;52.97;101331.53;5116468;27;45922;-54
2022/05/22 03:10:07;;;;;;;;;5.67;4.00;;;;;18.81;53.15;101339.50;5099318;27;45330;-55
2022/05/22 03:12:33;;;;;;;;;3.33;3.00;;;;;18.82;52.97;101332.25;5100893;27;45282;-53
2022/05/22 03:14:59;;;;;;;;;3.67;3.67;;;;;18.79;53.08;101336.16;5100331;27;47240;-54
2022/05/22 03:17:25;;;;;;;;;4.67;4.00;;;;;18.78;53.40;101337.19;5100433;27;45368;-54
2022/05/22 03:19:50;;;;;;;;;4.67;4.00;;;;;18.78;52.99;101331.78;5100437;27;45301;-54
2022/05/22 03:22:17;;;;;;;;;4.00;4.00;;;;;18.75;53.21;101320.53;5100701;27;45193;-52
2022/05/22 03:24:43;;;;;;;;;4.33;4.33;;;;;18.76;53.15;101320.38;5100020;27;46449;-53
2022/05/22 03:27:12;;;;;;;;;5.00;5.00;;;;;18.72;52.91;101311.00;5100076;27;45336;-54
2022/05/22 03:29:39;;;;;;;;;4.00;4.00;;;;;18.69;52.91;101303.25;5100326;27;45248;-53
2022/05/22 03:32:05;;;;;;;;;5.00;5.00;;;;;18.65;53.23;101293.84;5116488;27;45446;-54
2022/05/22 03:34:30;;;;;;;;;5.67;5.67;;;;;18.63;53.49;101294.06;5099867;27;46225;-54
2022/05/22 03:36:56;;;;;;;;;4.25;3.75;;;;;18.60;53.25;101291.72;5100168;27;45274;-54
2022/05/22 03:39:22;;;;;;;;;4.00;4.00;;;;;18.59;53.54;101292.75;5100069;27;45406;-55
2022/05/22 03:41:47;;;;;;;;;5.00;3.00;;;;;18.57;53.29;101285.84;5100494;27;45327;-55
2022/05/22 03:44:13;;;;;;;;;4.00;3.67;;;;;18.55;53.38;101282.53;5100178;27;47111;-54
2022/05/22 03:46:38;;;;;;;;;4.00;4.00;;;;;18.52;53.54;101289.13;5099818;27;45387;-48
2022/05/22 03:49:04;;;;;;;;;4.00;3.00;;;;;18.53;52.86;101289.94;5100093;27;45371;-53
2022/05/22 03:51:29;;;;;;;;;5.00;5.00;;;;;18.50;53.09;101288.47;5100260;27;45271;-55
2022/05/22 03:53:55;;;;;;;;;3.00;3.00;;;;;18.48;53.53;101290.50;5099615;27;46741;-53
2022/05/22 03:56:21;;;;;;;;;8.67;5.33;;;;;18.50;53.34;101287.63;5099993;27;45319;-54
2022/05/22 03:58:47;;;;;;;;;6.67;4.00;;;;;18.47;53.61;101294.22;5098876;27;45303;-54
2022/05/22 04:01:13;;;;;;;;;3.00;3.00;;;;;18.42;53.28;101278.63;5100028;27;45378;-54
2022/05/22 04:03:39;;;;;;;;;5.00;5.00;;;;;18.44;53.36;101279.25;5099645;27;45873;-50
2022/05/22 04:06:07;;;;;;;;;5.00;4.00;;;;;18.44;53.58;101286.50;5099329;27;45390;-53
2022/05/22 04:08:34;;;;;;;;;3.33;3.33;;;;;18.45;52.89;101269.31;5099637;27;45327;-49
2022/05/22 04:11:08;;;;;;;;;5.67;3.00;;;;;18.47;53.41;101258.38;5099702;27;45468;-53
2022/05/22 04:13:34;;;;;;;;;4.00;4.00;;;;;18.50;53.38;101256.16;5099255;27;47045;-54
2022/05/22 04:15:59;;;;;;;;;4.33;4.33;;;;;18.52;52.84;101254.09;5099644;27;45338;-50
2022/05/22 04:18:25;;;;;;;;;7.67;3.33;;;;;18.54;52.92;101254.75;5099735;27;45331;-59
2022/05/22 04:20:51;;;;;;;;;4.33;4.33;;;;;18.58;53.08;101245.28;5099881;27;45323;-52
2022/05/22 04:26:00;;;;;;;;;4.25;4.25;;;;;18.62;52.58;101260.03;5099459;27;45427;-51
2022/05/22 04:28:28;;;;;;;;;2.00;2.00;;;;;18.61;52.83;101255.66;5099736;27;45320;-49
2022/05/22 04:30:55;;;;;;;;;5.00;5.00;;;;;18.60;52.81;101258.56;5100218;27;45399;-48
2022/05/22 04:33:20;;;;;;;;;4.00;4.00;;;;;18.59;52.59;101241.56;5099142;27;45316;-44
2022/05/22 04:35:47;;;;;;;;;4.00;3.25;;;;;18.65;52.67;101264.22;5099186;27;45199;-53
2022/05/22 04:38:13;;;;;;;;;3.33;3.33;;;;;18.69;52.75;101262.81;5099410;27;45452;-51
2022/05/22 04:40:39;;;;;;;;;4.33;4.33;;;;;18.73;52.29;101264.16;5099404;27;45307;-53
2022/05/22 04:43:05;;;;;;;;;5.67;3.00;;;;;18.75;52.29;101261.25;5099702;27;46165;-54
2022/05/22 04:45:32;;;;;;;;;4.67;4.67;;;;;18.77;52.25;101259.22;5099250;27;45336;-52
2022/05/22 04:47:58;;;;;;;;;4.00;4.00;;;;;18.74;52.49;101255.03;5099398;27;45247;-54
2022/05/22 04:50:24;;;;;;;;;2.67;1.00;;;;;18.78;52.30;101266.28;5099582;27;45323;-51
2022/05/22 04:52:50;;;;;;;;;6.00;4.00;;;;;18.78;52.43;101277.88;5099038;27;45394;-49
2022/05/22 04:55:15;;;;;;;;;5.00;4.00;;;;;18.78;52.18;101268.97;5099171;27;45250;-46
2022/05/22 04:57:41;;;;;;;;;4.00;4.00;;;;;18.82;52.09;101263.00;5099043;27;45253;-53
2022/05/22 05:00:09;;;;;;;;;4.00;4.00;;;;;18.85;51.96;101264.50;5099511;27;45339;-51
2022/05/22 05:02:35;;;;;;;;;6.00;4.33;;;;;18.85;51.96;101268.03;5099457;27;46411;-53
2022/05/22 05:05:00;;;;;;;;;4.50;3.25;;;;;18.80;52.13;101270.47;5098284;27;45351;-53
2022/05/22 05:07:26;;;;;;;;;4.00;3.00;;;;;18.89;51.72;101279.28;5098579;27;45386;-53
2022/05/22 05:09:51;;;;;;;;;6.00;5.00;;;;;18.93;51.63;101283.28;5098657;27;45413;-53
2022/05/22 05:12:17;;;;;;;;;4.00;4.00;;;;;18.96;51.71;101285.56;5098593;27;46224;-48
2022/05/22 05:14:43;;;;;;;;;2.75;2.75;;;;;18.97;51.88;101278.34;5098558;27;45277;-43
2022/05/22 05:17:15;;;;;;;;;5.67;4.00;;;;;19.02;51.36;101268.66;5098577;27;45253;-46
2022/05/22 05:19:40;;;;;;;;;6.33;5.00;;;;;19.08;51.49;101270.59;5098642;27;45322;-43
2022/05/22 05:22:06;;;;;;;;;7.00;3.75;;;;;19.11;51.50;101269.38;5098360;27;47026;-50
2022/05/22 05:24:31;;;;;;;;;6.00;4.00;;;;;19.18;51.27;101273.00;5098111;27;45244;-51
2022/05/22 05:26:57;;;;;;;;;3.00;3.00;;;;;19.20;51.04;101276.31;5098647;27;45351;-48
2022/05/22 05:29:23;;;;;;;;;5.00;3.50;;;;;19.15;51.09;101262.56;5098604;27;45179;-53
2022/05/22 05:31:48;;;;;;;;;4.00;3.25;;;;;19.29;50.65;101285.97;5098116;27;45849;-45
2022/05/22 05:34:14;;;;;;;;;5.50;3.50;;;;;19.30;50.91;101276.00;5098323;27;45312;-45
2022/05/22 05:36:40;;;;;;;;;4.25;4.25;;;;;19.37;50.83;101285.84;5098342;27;45249;-45
2022/05/22 05:39:07;;;;;;;;;3.75;3.00;;;;;19.41;50.90;101281.75;5098425;27;45446;-50
2022/05/22 05:41:35;;;;;;;;;5.00;3.50;;;;;19.49;50.38;101278.09;5098038;27;46068;-52
2022/05/22 05:44:05;;;;;;;;;5.75;5.75;;;;;19.51;50.13;101286.84;5097762;27;45359;-52
2022/05/22 05:46:32;;;;;;;;;3.75;3.75;;;;;19.54;50.06;101291.84;5098369;27;45414;-53
2022/05/22 05:48:57;;;;;;;;;3.25;3.00;;;;;19.53;50.13;101281.25;5098405;27;45433;-53
2022/05/22 05:51:23;;;;;;;;;3.50;3.50;;;;;19.56;50.24;101291.66;5097946;27;47192;-49
2022/05/22 05:53:48;;;;;;;;;3.25;3.25;;;;;19.60;50.11;101292.94;5097797;27;45483;-53
2022/05/22 05:56:13;;;;;;;;;3.00;3.00;;;;;19.67;50.03;101289.28;5098065;27;45384;-54
2022/05/22 05:58:39;;;;;;;;;5.75;4.50;;;;;19.74;49.77;101283.13;5098368;27;45324;-53
2022/05/22 06:01:04;;;;;;;;;3.75;3.75;;;;;19.77;49.86;101274.66;5097245;27;46578;-55
2022/05/22 06:03:29;;;;;;;;;4.25;3.00;;;;;19.82;49.64;101270.34;5098002;27;45369;-53
2022/05/22 06:05:55;;;;;;;;;4.00;4.00;;;;;19.83;49.56;101244.16;5097659;27;45327;-50
2022/05/22 06:08:20;;;;;;;;;3.50;3.50;;;;;19.99;49.35;101254.69;5097923;27;45332;-52
2022/05/22 06:10:46;;;;;;;;;3.25;2.50;;;;;20.10;49.11;101264.97;5096314;27;45337;-53
2022/05/22 06:13:11;;;;;;;;;2.25;2.25;;;;;20.13;49.06;101255.59;5097569;27;45387;-53
2022/05/22 06:15:36;;;;;;;;;2.00;1.00;;;;;20.19;48.46;101254.84;5097994;27;45259;-46
2022/05/22 06:18:02;;;;;;;;;4.25;4.00;;;;;20.22;49.00;101253.59;5097814;27;45291;-53
2022/05/22 06:20:29;;;;;;;;;2.50;2.50;;;;;20.28;48.79;101250.13;5097553;27;45454;-53
2022/05/22 06:22:54;;;;;;;;;4.00;4.00;;;;;20.41;48.67;101239.38;5096938;27;45366;-53
2022/05/22 06:25:20;;;;;;;;;4.50;2.25;;;;;20.48;48.31;101215.97;5097503;27;45201;-52
2022/05/22 06:27:46;;;;;;;;;2.50;2.50;;;;;20.58;47.74;101212.88;5097844;27;45401;-50
2022/05/22 06:30:13;;;;;;;;;5.25;3.75;;;;;20.68;47.80;101222.28;5097453;27;47184;-52
2022/05/22 06:32:42;;;;;;;;;2.00;1.75;;;;;20.74;47.85;101219.81;5097256;27;45504;-54
2022/05/22 06:35:10;;;;;;;;;3.50;3.00;;;;;20.77;47.33;101216.69;5097588;27;45320;-53
2022/05/22 06:37:36;;;;;;;;;3.00;2.00;;;;;20.88;47.09;101197.19;5097671;27;45595;-50
2022/05/22 06:40:03;;;;;;;;;4.25;4.00;;;;;20.96;46.67;101186.19;5096977;27;46268;-55
2022/05/22 06:42:31;;;;;;;;;5.25;3.50;;;;;21.08;46.46;101187.25;5097227;27;45258;-52
2022/05/22 06:44:58;;;;;;;;;2.25;2.00;;;;;21.21;46.17;101177.50;5097306;27;45392;-54
2022/05/22 06:47:25;;;;;;;;;3.00;3.00;;;;;21.37;46.07;101169.03;5096351;27;45275;-54
2022/05/22 06:49:52;;;;;;;;;5.00;3.00;;;;;21.50;45.26;101166.31;5097099;27;45395;-44
2022/05/22 06:52:18;;;;;;;;;4.40;2.80;;;;;21.64;45.46;101172.53;5096589;27;45529;-54
2022/05/22 06:54:43;;;;;;;;;2.25;2.25;;;;;21.79;45.28;101181.28;5078840;27;45416;-54
2022/05/22 06:57:09;;;;;;;;;2.25;1.00;;;;;21.95;44.69;101180.00;5097274;27;45442;-53
2022/05/22 06:59:34;;;;;;;;;4.75;3.00;;;;;22.11;44.05;101176.00;5097042;27;45960;-54
2022/05/22 07:02:00;;;;;;;;;3.75;2.75;;;;;22.40;43.68;101167.41;5097082;27;45546;-55
2022/05/22 07:04:26;;;;;;;;;2.00;2.00;;;;;22.66;43.29;101162.91;5097050;27;45506;-54
2022/05/22 07:06:52;;;;;;;;;1.50;1.25;;;;;22.98;42.46;101184.69;5097386;27;45465;-53
2022/05/22 07:09:18;;;;;;;;;4.00;2.00;;;;;23.29;41.77;101181.13;5096877;27;45450;-55
2022/05/22 07:11:45;;;;;;;;;8.25;3.00;;;;;23.75;40.41;101179.97;5096757;27;45246;-52
2022/05/22 07:14:14;;;;;;;;;3.00;2.60;;;;;23.93;41.16;101187.31;5097219;27;45350;-47
2022/05/22 07:16:39;;;;;;;;;2.00;2.00;;;;;24.10;41.12;101177.50;5097355;27;45334;-56
2022/05/22 07:19:07;;;;;;;;;5.50;3.25;;;;;23.70;41.52;101158.91;5096958;27;46127;-51
2022/05/22 07:21:33;;;;;;;;;3.80;3.00;;;;;23.28;42.00;101169.44;5078277;27;45345;-54
2022/05/22 07:24:01;;;;;;;;;3.00;3.00;;;;;23.09;42.28;101170.41;5096870;27;45193;-53
2022/05/22 07:26:28;;;;;;;;;1.60;1.60;;;;;22.88;42.69;101169.69;5097166;27;45361;-51
2022/05/22 07:28:54;;;;;;;;;2.00;2.00;;;;;22.73;43.39;101162.88;5096599;27;45414;-50
2022/05/22 07:31:22;;;;;;;;;3.00;2.00;;;;;22.54;43.89;101142.94;5096669;27;45360;-53
2022/05/22 07:33:47;;;;;;;;;3.00;3.00;;;;;22.31;43.88;101129.91;5097518;27;45440;-52
2022/05/22 07:36:13;;;;;;;;;3.00;3.00;;;;;22.30;43.80;101131.81;5100445;27;45213;-53
2022/05/22 07:38:39;;;;;;;;;3.00;1.75;;;;;22.26;44.11;101137.88;5100235;27;46202;-54
2022/05/22 07:41:05;;;;;;;;;4.00;2.60;;;;;22.30;43.97;101158.91;5099952;27;45379;-51
2022/05/22 07:43:30;;;;;;;;;3.25;3.00;;;;;22.32;44.16;101174.94;5099887;27;45554;-50
2022/05/22 07:45:56;;;;;;;;;5.00;2.00;;;;;22.30;43.78;101183.31;5100441;27;45357;-51
2022/05/22 07:48:22;;;;;;;;;4.00;4.00;;;;;22.41;43.65;101176.38;5099510;27;46655;-54
2022/05/22 07:50:54;;;;;;;;;2.00;2.00;;;;;22.56;43.03;101185.06;5099869;27;45412;-52
2022/05/22 07:53:19;;;;;;;;;4.00;4.00;;;;;22.75;43.25;101158.91;5100239;27;45402;-53
2022/05/22 07:55:45;;;;;;;;;2.50;2.25;;;;;23.07;42.67;101140.78;5081585;27;45576;-52
2022/05/22 07:58:10;;;;;;;;;3.25;2.00;;;;;23.26;42.03;101139.00;5099862;27;45447;-53
2022/05/22 08:00:36;;;;;;;;;3.00;2.25;;;;;23.37;42.30;101134.72;5099768;27;45415;-53
2022/05/22 08:03:08;;;;;;;;;2.25;2.25;;;;;23.49;41.93;101132.94;5099831;27;45232;-50
2022/05/22 08:05:33;;;;;;;;;4.75;3.00;;;;;23.73;41.51;101134.00;5100274;27;45359;-48
2022/05/22 08:07:58;;;;;;;;;4.50;4.00;;;;;24.06;40.60;101130.09;5099780;27;45325;-43
2022/05/22 08:10:24;;;;;;;;;4.00;3.00;;;;;24.41;40.43;101124.91;5099930;27;45352;-50
2022/05/22 08:12:49;;;;;;;;;3.25;3.25;;;;;25.08;39.76;101113.91;5099529;27;45213;-49
2022/05/22 08:15:18;;;;;;;;;2.50;2.50;;;;;25.82;39.49;101119.78;5099939;27;45520;-51
2022/05/22 08:17:44;;;;;;;;;2.20;2.20;;;;;26.11;36.74;101116.06;5099640;27;46082;-46
2022/05/22 08:20:16;;;;;;;;;4.20;3.00;;;;;26.26;36.87;101106.56;5099520;27;45304;-52
2022/05/22 08:22:44;;;;;;;;;5.00;3.20;;;;;26.42;37.00;101094.03;5099583;27;45441;-44
2022/05/22 08:25:11;;;;;;;;;2.00;2.00;;;;;26.40;36.65;101077.91;5079281;28;45526;-52
2022/05/22 08:27:36;;;;;;;;;4.00;2.40;;;;;26.44;36.63;101067.34;5076997;28;46152;-46
2022/05/22 08:30:03;;;;;;;;;2.25;2.25;;;;;26.51;37.18;101057.16;5078794;28;45301;-43
2022/05/22 08:32:28;;;;;;;;;4.00;4.00;;;;;26.49;36.81;101057.38;5079087;28;45289;-53
2022/05/22 08:34:54;;;;;;;;;2.00;2.00;;;;;26.71;36.78;101067.59;5079024;28;45398;-52
2022/05/22 08:37:20;;;;;;;;;3.50;3.00;;;;;26.77;36.63;101072.06;5078302;28;46495;-48
2022/05/22 08:39:45;;;;;;;;;3.75;3.75;;;;;26.77;36.00;101067.44;5078717;28;45863;-51
2022/05/22 08:42:18;;;;;;;;;3.00;2.25;;;;;27.59;35.78;101079.66;5078582;28;45239;-52
2022/05/22 08:44:51;;;;;;;;;3.00;3.00;;;;;27.87;35.23;101075.16;5078418;28;45451;-53
2022/05/22 08:47:37;;;;;;;;;2.20;2.20;;;;;28.12;34.38;101071.94;5078570;28;47120;-52
2022/05/22 08:50:11;;;;;;;;;3.20;2.80;;;;;28.73;33.75;101070.69;5078500;28;45310;-45
2022/05/22 08:52:47;;;;;;;;;2.00;2.00;;;;;28.89;31.79;101071.66;5078620;28;45259;-53
2022/05/22 08:55:24;;;;;;;;;5.00;3.80;;;;;29.01;31.17;101069.59;5078848;28;45404;-51
2022/05/22 09:00:42;;;;;;;;;2.00;2.00;;;;;29.56;31.98;101071.09;5078431;28;45418;-52
2022/05/22 09:03:24;;;;;;;;;3.25;2.00;;;;;29.82;31.82;101079.47;5078602;28;45341;-52
2022/05/22 09:05:55;;;;;;;;;0.60;0.60;;;;;30.15;31.85;101085.66;5078476;28;45456;-51
2022/05/22 09:08:36;;;;;;;;;2.80;2.80;;;;;30.47;32.06;101066.28;5078272;28;46388;-49
2022/05/22 09:11:17;;;;;;;;;2.60;2.60;;;;;30.33;30.31;101060.47;5078174;28;45515;-52
2022/05/22 09:14:05;;;;;;;;;3.80;2.40;;;;;29.76;31.62;101064.09;5078356;28;45347;-52
2022/05/22 09:16:39;;;;;;;;;2.20;2.20;;;;;29.39;31.07;101061.38;5078683;28;45314;-52
2022/05/22 09:19:22;;;;;;;;;2.00;0.20;;;;;28.99;30.80;101055.34;5077986;28;46305;-49
2022/05/22 09:21:54;;;;;;;;;2.80;2.80;;;;;28.41;32.37;101051.50;5078058;28;45417;-52
2022/05/22 09:24:51;;;;;;;;;2.40;2.40;;;;;28.33;32.65;101049.19;5077626;28;45351;-51
2022/05/22 09:27:24;;;;;;;;;2.00;2.00;;;;;28.62;32.71;101046.22;5078157;28;45329;-52
2022/05/22 09:30:06;;;;;;;;;4.80;3.00;;;;;28.56;32.65;101048.06;5077254;28;46444;-51
2022/05/22 09:32:44;;;;;;;;;2.20;2.20;;;;;28.70;32.15;101029.34;5078018;28;45371;-47
2022/05/22 09:35:38;;;;;;;;;3.40;2.80;;;;;28.62;33.33;101029.81;5077962;28;45464;-50
2022/05/22 09:38:42;;;;;;;;;2.60;2.60;;;;;28.06;32.93;101033.59;4995952;28;45519;-46
2022/05/22 09:41:42;;;;;;;;;2.60;2.60;;;;;27.66;33.76;101031.13;4956094;28;46368;-47
2022/05/22 09:44:33;;;;;;;;;3.40;2.20;;;;;27.32;33.25;101025.75;4956266;28;45445;-53
2022/05/22 09:47:01;;;;;;;;;2.00;2.00;;;;;27.05;33.87;101014.69;4956506;28;45547;-48
2022/05/22 09:50:00;;;;;;;;;1.80;1.80;;;;;26.66;34.70;101004.75;4956601;28;45231;-48
2022/05/22 09:52:43;;;;;;;;;2.00;2.00;;;;;26.17;35.01;101010.66;4955965;28;47164;-52
2022/05/22 09:55:30;;;;;;;;;2.00;2.00;;;;;25.81;35.66;101011.84;4956074;28;44747;-53
2022/05/22 09:58:01;;;;;;;;;2.00;2.00;;;;;25.45;35.79;101010.22;4955169;28;45431;-52
2022/05/22 10:00:36;;;;;;;;;3.80;3.00;;;;;25.14;36.17;100995.91;4956414;28;45552;-54
2022/05/22 10:03:13;;;;;;;;;2.60;2.60;;;;;24.92;37.24;100982.06;4956082;28;45537;-55
2022/05/22 10:05:41;;;;;;;;;5.00;3.00;;;;;24.76;37.76;100985.47;4955742;28;45416;-53
2022/05/22 10:08:16;;;;;;;;;3.00;3.00;;;;;24.62;37.44;100974.81;4956200;28;45385;-51
2022/05/22 10:11:21;;;;;;;;;2.60;2.60;;;;;24.53;37.46;100959.88;4956078;28;45470;-53
2022/05/22 10:13:53;;;;;;;;;5.40;1.60;;;;;24.42;37.52;100952.53;4955612;28;46011;-53
2022/05/22 10:16:45;;;;;;;;;2.80;2.80;;;;;24.24;38.28;100949.84;5034818;28;45436;-53
2022/05/22 10:19:34;;;;;;;;;3.80;2.80;;;;;24.22;38.73;100951.97;5077263;28;45258;-54
2022/05/22 10:22:10;;;;;;;;;4.60;3.60;;;;;24.15;38.55;100960.22;5077707;28;45321;-54
2022/05/22 10:25:03;;;;;;;;;4.60;2.80;;;;;24.21;38.55;100962.00;5077218;28;46120;-54
2022/05/22 10:27:52;;;;;;;;;4.20;3.00;;;;;24.17;38.66;100960.00;5077054;28;45410;-53
2022/05/22 10:30:33;;;;;;;;;3.40;2.20;;;;;24.22;38.78;100941.09;5077211;27;45416;-53
2022/05/22 10:33:05;;;;;;;;;6.20;3.40;;;;;24.26;38.89;100942.28;5077252;28;45313;-55
2022/05/22 10:35:44;;;;;;;;;3.60;3.60;;;;;24.10;38.35;100922.03;5076799;28;46585;-55
2022/05/22 10:38:13;;;;;;;;;3.60;2.40;;;;;24.02;38.68;100922.34;5076805;28;45396;-53
2022/05/22 10:43:33;;;;;;;;;3.40;2.60;;;;;23.67;39.19;100886.91;5077258;28;45396;-51
2022/05/22 10:45:59;;;;;;;;;3.20;3.20;;;;;23.60;39.08;100885.09;5076983;28;45217;-50
2022/05/22 10:48:24;;;;;;;;;3.75;3.75;;;;;23.51;39.68;100891.91;5076768;28;45267;-55
2022/05/22 10:51:02;;;;;;;;;2.50;2.50;;;;;23.38;40.27;100892.88;5077169;28;45345;-54
2022/05/22 10:53:30;;;;;;;;;3.20;2.80;;;;;23.31;40.00;100873.13;5077043;28;45192;-51
2022/05/22 10:56:20;;;;;;;;;3.40;3.00;;;;;23.23;41.03;100868.00;5076673;28;47187;-54
2022/05/22 10:58:52;;;;;;;;;4.80;3.60;;;;;23.19;41.16;100868.69;5075658;28;45322;-54
2022/05/22 11:01:23;;;;;;;;;3.00;2.80;;;;;23.13;41.87;100843.28;5076826;28;45238;-52
2022/05/22 11:04:16;;;;;;;;;3.50;3.50;;;;;23.04;41.28;100848.19;5076850;28;45424;-53
2022/05/22 11:06:58;;;;;;;;;4.60;4.00;;;;;23.03;43.03;100868.22;5076431;28;46307;-50
2022/05/22 11:09:29;;;;;;;;;7.00;4.00;;;;;23.03;42.65;100857.38;5079831;28;45421;-52
2022/05/22 11:12:04;;;;;;;;;6.20;5.80;;;;;23.02;42.25;100872.00;5080167;28;45419;-51
2022/05/22 11:14:33;;;;;;;;;5.00;5.00;;;;;22.98;43.13;100869.97;5080158;28;45371;-54
2022/05/22 11:17:17;;;;;;;;;5.75;5.75;;;;;22.87;43.85;100866.09;5079836;28;46078;-56
2022/05/22 11:19:46;;;;;;;;;4.20;4.20;;;;;22.81;45.01;100880.56;5079956;28;45351;-56
2022/05/22 11:22:31;;;;;;;;;3.40;3.40;;;;;22.73;45.30;100892.53;5079991;28;45225;-53
2022/05/22 11:25:35;;;;;;;;;3.00;3.00;;;;;22.63;44.42;100862.38;5080240;28;45220;-55
2022/05/22 11:28:22;;;;;;;;;6.50;4.75;;;;;22.79;45.95;100879.94;5079760;28;46170;-52
2022/05/22 11:30:59;;;;;;;;;8.00;4.40;;;;;22.88;45.55;100884.00;5079895;28;45444;-54
2022/05/22 11:34:02;;;;;;;;;8.00;4.80;;;;;22.84;45.82;100872.81;5079611;28;45342;-52
2022/05/22 11:37:03;;;;;;;;;5.00;5.00;;;;;22.88;46.67;100875.88;5080066;28;45552;-50
2022/05/22 11:39:43;;;;;;;;;6.00;6.00;;;;;22.97;45.89;100869.16;5079758;28;45274;-56
2022/05/22 11:42:31;;;;;;;;;4.80;4.20;;;;;23.10;46.01;100870.88;5079802;28;45388;-52
2022/05/22 11:45:15;;;;;;;;;5.40;4.20;;;;;23.22;44.89;100882.66;5079647;28;45463;-49
2022/05/22 11:47:49;;;;;;;;;4.00;4.00;;;;;23.22;45.22;100873.66;5080102;28;45333;-50
2022/05/22 11:50:39;;;;;;;;;6.50;4.00;;;;;23.16;45.67;100864.53;5079631;28;45357;-49